createdAt,value
2022-09-16T00:01:01.748Z,100250.31
2022-09-16T00:03:29.484Z,100251.97
2022-09-16T00:05:58.529Z,100253.97
2022-09-16T00:08:26.275Z,100251.97
2022-09-16T00:10:53.981Z,100256.31
2022-09-16T00:13:21.801Z,100248.31
2022-09-16T00:15:51.955Z,100244.66
2022-09-16T00:18:20.638Z,100219.41
2022-09-16T00:20:50.902Z,100236.50
2022-09-16T00:23:20.879Z,100228.66
2022-09-16T00:25:52.443Z,100235.53
2022-09-16T00:28:21.670Z,100230.34
2022-09-16T00:30:50.168Z,100238.66
2022-09-16T00:33:19.295Z,100226.91
2022-09-16T00:35:47.202Z,100233.75
2022-09-16T00:38:15.074Z,100241.06
2022-09-16T00:40:48.956Z,100240.41
2022-09-16T00:43:18.314Z,100242.56
2022-09-16T00:45:51.545Z,100245.06
2022-09-16T00:48:23.945Z,100243.38
2022-09-16T00:50:55.052Z,100232.25
2022-09-16T00:53:25.763Z,100248.72
2022-09-16T00:55:57.645Z,100247.88
2022-09-16T00:58:32.189Z,100239.72
2022-09-16T01:01:00.106Z,100254.53
2022-09-16T01:03:29.577Z,100246.88
2022-09-16T01:05:57.368Z,100258.03
2022-09-16T01:08:25.656Z,100251.41
2022-09-16T01:10:55.209Z,100252.72
2022-09-16T01:13:23.520Z,100249.41
2022-09-16T01:15:57.839Z,100253.09
2022-09-16T01:18:31.528Z,100246.94
2022-09-16T01:21:23.260Z,100245.78
2022-09-16T01:24:45.014Z,100251.75
2022-09-16T01:27:54.665Z,100259.25
2022-09-16T01:30:56.994Z,100250.44
2022-09-16T01:33:35.092Z,100247.09
2022-09-16T01:36:21.900Z,100251.75
2022-09-16T01:39:02.127Z,100244.78
2022-09-16T01:41:43.553Z,100240.13
2022-09-16T01:44:22.071Z,100245.44
2022-09-16T01:47:00.866Z,100245.59
2022-09-16T01:49:39.616Z,100247.25
2022-09-16T01:52:17.637Z,100239.44
2022-09-16T01:54:50.135Z,100227.47
2022-09-16T01:57:24.088Z,100237.13
2022-09-16T01:59:56.753Z,100234.28
2022-09-16T02:02:32.560Z,100208.88
2022-09-16T02:05:04.864Z,100228.63
2022-09-16T02:07:36.148Z,100212.81
2022-09-16T02:10:11.691Z,100231.78
2022-09-16T02:12:44.479Z,100228.13
2022-09-16T02:15:18.681Z,100234.13
2022-09-16T02:17:51.587Z,100219.81
2022-09-16T02:20:25.287Z,100222.97
2022-09-16T02:22:56.977Z,100228.13
2022-09-16T02:25:25.422Z,100223.63
2022-09-16T02:27:55.027Z,100225.91
2022-09-16T02:30:23.995Z,100219.47
2022-09-16T02:32:58.656Z,100223.63
2022-09-16T02:35:28.888Z,100227.28
2022-09-16T02:38:00.529Z,100222.44
2022-09-16T02:40:33.840Z,100227.47
2022-09-16T02:43:01.975Z,100223.44
2022-09-16T02:45:39.279Z,100226.94
2022-09-16T02:48:17.399Z,100227.41
2022-09-16T02:50:51.294Z,100213.78
2022-09-16T02:53:28.793Z,100213.63
2022-09-16T02:56:01.520Z,100214.78
2022-09-16T02:58:30.482Z,100214.16
2022-09-16T03:00:58.859Z,100204.53
2022-09-16T03:03:27.939Z,100211.16
2022-09-16T03:06:18.834Z,100213.16
2022-09-16T03:08:47.799Z,100206.50
2022-09-16T03:11:30.529Z,100204.16
2022-09-16T03:14:12.920Z,100210.78
2022-09-16T03:16:48.849Z,100203.63
2022-09-16T03:19:27.244Z,100203.50
2022-09-16T03:22:02.620Z,100199.19
2022-09-16T03:24:38.696Z,100193.19
2022-09-16T03:27:11.692Z,100193.53
2022-09-16T03:29:46.039Z,100200.91
2022-09-16T03:32:21.800Z,100194.56
2022-09-16T03:34:54.397Z,100206.00
2022-09-16T03:37:24.544Z,100206.84
2022-09-16T03:39:54.143Z,100201.84
2022-09-16T03:42:22.523Z,100194.19
2022-09-16T03:44:50.435Z,100197.53
2022-09-16T03:47:18.764Z,100196.84
2022-09-16T03:49:46.444Z,100203.34
2022-09-16T03:52:17.324Z,100197.69
2022-09-16T03:54:45.024Z,100189.09
2022-09-16T03:57:12.931Z,100194.53
2022-09-16T03:59:40.918Z,100191.88
2022-09-16T04:02:08.874Z,100195.53
2022-09-16T04:04:36.600Z,100187.59
2022-09-16T04:07:04.559Z,100188.72
2022-09-16T04:09:33.629Z,100179.63
2022-09-16T04:12:01.467Z,100184.47
2022-09-16T04:14:29.159Z,100188.31
2022-09-16T04:16:56.916Z,100185.66
2022-09-16T04:19:24.746Z,100178.63
2022-09-16T04:21:52.485Z,100181.78
2022-09-16T04:24:20.556Z,100174.94
2022-09-16T04:26:49.624Z,100181.44
2022-09-16T04:29:17.679Z,100182.28
2022-09-16T04:31:45.439Z,100178.44
2022-09-16T04:34:13.562Z,100175.91
2022-09-16T04:36:41.372Z,100183.22
2022-09-16T04:39:09.388Z,100175.78
2022-09-16T04:41:37.242Z,100175.28
2022-09-16T04:44:06.418Z,100178.25
2022-09-16T04:46:34.278Z,100178.94
2022-09-16T04:49:02.058Z,100179.78
2022-09-16T04:51:32.141Z,100176.28
2022-09-16T04:54:01.411Z,100179.06
2022-09-16T04:56:31.541Z,100187.59
2022-09-16T04:59:02.164Z,100186.06
2022-09-16T05:01:33.311Z,100178.13
2022-09-16T05:04:03.242Z,100175.97
2022-09-16T05:06:33.255Z,100183.78
2022-09-16T05:09:01.844Z,100191.31
2022-09-16T05:11:31.141Z,100183.97
2022-09-16T05:14:00.423Z,100181.66
2022-09-16T05:16:28.873Z,100180.81
2022-09-16T05:18:59.807Z,100179.84
2022-09-16T05:21:29.473Z,100179.31
2022-09-16T05:24:01.545Z,100179.97
2022-09-16T05:26:35.136Z,100179.78
2022-09-16T05:29:03.881Z,100181.63
2022-09-16T05:31:33.332Z,100177.34
2022-09-16T05:34:03.911Z,100175.69
2022-09-16T05:36:33.779Z,100195.25
2022-09-16T05:39:22.190Z,100198.91
2022-09-16T05:41:50.531Z,100190.25
2022-09-16T05:44:18.667Z,100199.75
2022-09-16T05:46:46.535Z,100195.91
2022-09-16T05:49:20.335Z,100193.94
2022-09-16T05:51:49.298Z,100201.91
2022-09-16T05:54:18.353Z,100202.56
2022-09-16T05:56:46.898Z,100210.25
2022-09-16T05:59:15.839Z,100197.59
2022-09-16T06:01:44.172Z,100197.59
2022-09-16T06:04:13.917Z,100186.66
2022-09-16T06:06:44.169Z,100185.78
2022-09-16T06:09:13.657Z,100197.25
2022-09-16T06:11:42.886Z,100195.56
2022-09-16T06:14:12.200Z,100200.25
2022-09-16T06:16:40.339Z,100192.41
2022-09-16T06:19:11.222Z,100182.44
2022-09-16T06:21:39.911Z,100192.75
2022-09-16T06:24:10.011Z,100198.72
2022-09-16T06:26:39.800Z,100195.19
2022-09-16T06:29:09.321Z,100202.19
2022-09-16T06:31:38.486Z,100204.84
2022-09-16T06:34:07.546Z,100205.22
2022-09-16T06:36:42.831Z,100203.56
2022-09-16T06:39:15.305Z,100205.06
2022-09-16T06:41:43.356Z,100202.22
2022-09-16T06:44:11.394Z,100200.03
2022-09-16T06:46:39.643Z,100203.84
2022-09-16T06:49:10.899Z,100201.50
2022-09-16T06:51:38.744Z,100194.84
2022-09-16T06:54:08.288Z,100199.34
2022-09-16T06:56:39.279Z,100198.69
2022-09-16T06:59:07.807Z,100199.84
2022-09-16T07:01:35.990Z,100206.19
2022-09-16T07:04:05.978Z,100203.84
2022-09-16T07:09:22.617Z,100204.50
2022-09-16T07:11:51.655Z,100209.84
2022-09-16T07:14:19.388Z,100212.34
2022-09-16T07:16:47.162Z,100216.34
2022-09-16T07:19:14.990Z,100209.84
2022-09-16T07:21:42.651Z,100210.53
2022-09-16T07:24:13.363Z,100206.88
2022-09-16T07:26:42.910Z,100211.53
2022-09-16T07:29:15.744Z,100207.19
2022-09-16T07:31:44.182Z,100217.81
2022-09-16T07:34:13.781Z,100221.78
2022-09-16T07:36:43.320Z,100218.81
2022-09-16T07:39:13.393Z,100218.97
2022-09-16T07:41:43.447Z,100218.16
2022-09-16T07:44:17.674Z,100220.81
2022-09-16T07:46:45.400Z,100223.47
2022-09-16T07:49:14.885Z,100220.13
2022-09-16T07:51:42.710Z,100235.91
2022-09-16T07:54:12.552Z,100239.41
2022-09-16T07:56:41.184Z,100240.00
2022-09-16T07:59:14.382Z,100232.72
2022-09-16T08:01:47.124Z,100233.03
2022-09-16T08:04:14.959Z,100247.69
2022-09-16T08:06:42.822Z,100245.34
2022-09-16T08:09:36.854Z,100242.00
2022-09-16T08:11:58.408Z,100244.00
2022-09-16T08:14:26.327Z,100239.06
2022-09-16T08:16:55.472Z,100245.38
2022-09-16T08:19:23.289Z,100239.22
2022-09-16T08:21:54.035Z,100245.06
2022-09-16T08:24:21.796Z,100256.03
2022-09-16T08:26:49.651Z,100255.50
2022-09-16T08:29:18.399Z,100255.97
2022-09-16T08:31:46.384Z,100261.47
2022-09-16T08:34:27.449Z,100264.28
2022-09-16T08:36:55.391Z,100263.91
2022-09-16T08:39:23.210Z,100255.59
2022-09-16T08:42:31.909Z,100263.91
2022-09-16T08:45:09.272Z,100258.69
2022-09-16T08:47:51.239Z,100270.03
2022-09-16T08:50:25.861Z,100268.69
2022-09-16T08:52:57.884Z,100265.28
2022-09-16T08:55:31.503Z,100251.84
2022-09-16T08:58:07.341Z,100272.13
2022-09-16T09:00:35.457Z,100240.88
2022-09-16T09:03:13.685Z,100267.34
2022-09-16T09:05:52.691Z,100267.00
2022-09-16T09:08:31.163Z,100268.19
2022-09-16T09:11:06.701Z,100263.19
2022-09-16T09:13:59.317Z,100259.63
2022-09-16T09:16:37.819Z,100251.84
2022-09-16T09:19:19.363Z,100247.75
2022-09-16T09:22:00.270Z,100263.44
2022-09-16T09:24:39.436Z,100242.19
2022-09-16T09:27:21.347Z,100266.22
2022-09-16T09:30:04.468Z,100264.09
2022-09-16T09:32:49.646Z,100249.69
2022-09-16T09:35:37.344Z,100259.22
2022-09-16T09:38:30.156Z,100266.09
2022-09-16T09:41:01.910Z,100264.84
2022-09-16T09:43:43.891Z,100235.94
2022-09-16T09:46:19.643Z,100266.34
2022-09-16T09:48:52.732Z,100262.16
2022-09-16T09:51:24.870Z,100269.59
2022-09-16T09:53:59.912Z,100260.00
2022-09-16T09:56:32.016Z,100268.19
2022-09-16T09:59:06.295Z,100259.00
2022-09-16T10:01:33.993Z,100265.66
2022-09-16T10:04:02.051Z,100262.91
2022-09-16T10:06:34.838Z,100254.44
2022-09-16T10:09:03.942Z,100259.59
2022-09-16T10:11:33.179Z,100259.59
2022-09-16T10:14:05.676Z,100246.72
2022-09-16T10:16:37.138Z,100247.72
2022-09-16T10:19:08.879Z,100253.78
2022-09-16T10:21:43.553Z,100251.81
2022-09-16T10:24:30.020Z,100241.53
2022-09-16T10:27:02.335Z,100240.50
2022-09-16T10:29:30.333Z,100232.50
2022-09-16T10:32:04.055Z,100222.16
2022-09-16T10:34:35.314Z,100253.13
2022-09-16T10:37:05.969Z,100256.16
2022-09-16T10:39:35.217Z,100251.09
2022-09-16T10:42:04.261Z,100235.81
2022-09-16T10:44:34.983Z,100225.50
2022-09-16T10:47:06.900Z,100231.00
2022-09-16T10:49:39.705Z,100229.53
2022-09-16T10:52:17.321Z,100226.47
2022-09-16T10:54:46.827Z,100234.91
2022-09-16T10:57:24.289Z,100236.06
2022-09-16T11:00:00.105Z,100230.09
2022-09-16T11:02:44.117Z,100228.72
2022-09-16T11:05:18.664Z,100222.38
2022-09-16T11:07:56.554Z,100220.44
2022-09-16T11:10:32.942Z,100215.66
2022-09-16T11:13:16.520Z,100231.84
2022-09-16T11:15:59.898Z,100223.84
2022-09-16T11:18:42.743Z,100234.53
2022-09-16T11:21:26.709Z,100232.38
2022-09-16T11:24:12.863Z,100234.25
2022-09-16T11:26:50.338Z,100251.13
2022-09-16T11:29:38.218Z,100246.91
2022-09-16T11:40:11.370Z,100237.19
2022-09-16T11:42:43.709Z,100243.34
2022-09-16T11:45:31.039Z,100228.81
2022-09-16T11:48:17.114Z,100231.38
2022-09-16T11:50:53.536Z,100224.06
2022-09-16T11:53:43.642Z,100230.66
2022-09-16T11:56:18.595Z,100236.47
2022-09-16T11:58:49.841Z,100235.28
2022-09-16T12:01:31.535Z,100235.50
2022-09-16T12:04:05.139Z,100253.03
2022-09-16T12:06:41.741Z,100233.22
2022-09-16T12:09:15.155Z,100227.28
2022-09-16T12:11:49.181Z,100251.97
2022-09-16T12:14:21.670Z,100285.97
2022-09-16T12:16:55.880Z,100295.09
2022-09-16T12:19:29.084Z,100290.03
2022-09-16T12:22:04.669Z,100293.38
2022-09-16T12:24:39.560Z,100279.94
2022-09-16T12:27:32.051Z,100269.25
2022-09-16T12:30:03.635Z,100274.59
2022-09-16T12:32:38.147Z,100272.72
2022-09-16T12:35:14.243Z,100277.75
2022-09-16T12:37:49.105Z,100286.88
2022-09-16T12:40:20.811Z,100267.44
2022-09-16T12:43:18.696Z,100275.41
2022-09-16T12:46:10.555Z,100258.44
2022-09-16T12:49:22.173Z,100270.41
2022-09-16T12:52:11.447Z,100260.94
2022-09-16T12:55:08.910Z,100266.56
2022-09-16T12:57:54.408Z,100272.28
2022-09-16T13:00:25.970Z,100277.28
2022-09-16T13:02:57.191Z,100260.84
2022-09-16T13:05:32.459Z,100272.34
2022-09-16T13:08:08.298Z,100280.63
2022-09-16T13:11:01.505Z,100284.06
2022-09-16T13:13:34.121Z,100257.38
2022-09-16T13:16:07.955Z,100280.16
2022-09-16T13:18:44.888Z,100281.84
2022-09-16T13:21:24.786Z,100283.25
2022-09-16T13:24:00.976Z,100277.59
2022-09-16T13:26:40.195Z,100276.63
2022-09-16T13:29:33.141Z,100272.66
2022-09-16T13:32:02.447Z,100268.63
2022-09-16T13:34:30.958Z,100276.63
2022-09-16T13:36:58.805Z,100278.66
2022-09-16T13:39:31.131Z,100273.63
2022-09-16T13:41:59.715Z,100271.63
2022-09-16T13:44:31.467Z,100270.47
2022-09-16T13:47:34.276Z,100286.97
2022-09-16T13:50:08.673Z,100266.19
2022-09-16T13:52:37.432Z,100282.09
2022-09-16T13:55:11.614Z,100293.59
2022-09-16T13:58:00.173Z,100260.69
2022-09-16T14:00:35.373Z,100287.59
2022-09-16T14:03:33.144Z,100284.13
2022-09-16T14:06:12.581Z,100290.94
2022-09-16T14:08:51.671Z,100278.66
2022-09-16T14:11:29.763Z,100280.66
2022-09-16T14:14:05.749Z,100267.03
2022-09-16T14:16:36.850Z,100280.66
2022-09-16T14:19:16.273Z,100284.19
2022-09-16T14:21:43.980Z,100286.34
2022-09-16T14:24:18.928Z,100271.53
2022-09-16T14:26:53.896Z,100275.53
2022-09-16T14:29:21.732Z,100265.38
2022-09-16T14:31:52.132Z,100275.34
2022-09-16T14:34:28.986Z,100276.31
2022-09-16T14:36:57.110Z,100252.75
2022-09-16T14:39:27.732Z,100270.06
2022-09-16T14:41:58.486Z,100268.69
2022-09-16T14:44:31.892Z,100242.44
2022-09-16T14:47:08.863Z,100265.13
2022-09-16T14:49:43.648Z,100264.81
2022-09-16T14:52:20.586Z,100269.97
2022-09-16T14:54:48.875Z,100261.97
2022-09-16T14:57:20.574Z,100258.50
2022-09-16T14:59:48.724Z,100267.94
2022-09-16T15:02:23.314Z,100258.44
2022-09-16T15:04:56.336Z,100253.13
2022-09-16T15:07:28.137Z,100250.53
2022-09-16T15:10:01.285Z,100256.94
2022-09-16T15:12:32.998Z,100261.28
2022-09-16T15:15:06.235Z,100244.88
2022-09-16T15:17:34.463Z,100272.94
2022-09-16T15:20:03.949Z,100260.50
2022-09-16T15:22:31.839Z,100255.19
2022-09-16T15:25:00.337Z,100257.78
2022-09-16T15:27:29.641Z,100261.09
2022-09-16T15:30:00.061Z,100249.84
2022-09-16T15:32:31.767Z,100258.50
2022-09-16T15:35:19.656Z,100254.59
2022-09-16T15:37:48.227Z,100241.00
2022-09-16T15:40:23.304Z,100268.59
2022-09-16T15:43:03.979Z,100218.47
2022-09-16T15:45:32.250Z,100257.97
2022-09-16T15:48:02.980Z,100263.47
2022-09-16T15:50:41.515Z,100256.66
2022-09-16T15:53:13.204Z,100261.31
2022-09-16T15:55:44.887Z,100253.03
2022-09-16T15:58:16.761Z,100264.50
2022-09-16T16:01:07.121Z,100255.88
2022-09-16T16:03:46.599Z,100252.19
2022-09-16T16:06:15.699Z,100254.19
2022-09-16T16:08:47.035Z,100253.38
2022-09-16T16:11:16.963Z,100251.50
2022-09-16T16:13:45.058Z,100254.66
2022-09-16T16:16:14.671Z,100266.97
2022-09-16T16:18:44.140Z,100263.53
2022-09-16T16:21:14.213Z,100266.69
2022-09-16T16:23:43.628Z,100263.03
2022-09-16T16:26:12.195Z,100265.34
2022-09-16T16:28:39.883Z,100267.91
2022-09-16T16:31:13.279Z,100268.38
2022-09-16T16:33:44.927Z,100262.06
2022-09-16T16:36:14.233Z,100269.22
2022-09-16T16:38:43.656Z,100268.22
2022-09-16T16:41:12.213Z,100270.06
2022-09-16T16:43:40.579Z,100275.88
2022-09-16T16:46:09.042Z,100271.06
2022-09-16T16:48:37.070Z,100267.44
2022-09-16T16:51:07.725Z,100269.09
2022-09-16T16:53:35.923Z,100266.94
2022-09-16T16:56:07.329Z,100277.38
2022-09-16T16:58:37.823Z,100277.75
2022-09-16T17:01:09.586Z,100277.06
2022-09-16T17:03:37.348Z,100281.06
2022-09-16T17:06:06.452Z,100278.75
2022-09-16T17:08:34.603Z,100288.06
2022-09-16T17:11:11.607Z,100277.41
2022-09-16T17:13:40.656Z,100282.56
2022-09-16T17:16:09.130Z,100286.72
2022-09-16T17:18:37.415Z,100295.56
2022-09-16T17:21:06.552Z,100297.06
2022-09-16T17:23:35.135Z,100298.38
2022-09-16T17:26:03.635Z,100298.06
2022-09-16T17:28:33.181Z,100295.56
2022-09-16T17:31:01.014Z,100301.38
2022-09-16T17:33:28.837Z,100298.88
2022-09-16T17:36:03.592Z,100303.06
2022-09-16T17:38:31.640Z,100309.03
2022-09-16T17:41:04.756Z,100313.66
2022-09-16T17:43:34.313Z,100314.34
2022-09-16T17:46:03.469Z,100313.53
2022-09-16T17:48:31.955Z,100317.00
2022-09-16T17:51:00.430Z,100315.19
2022-09-16T17:53:28.148Z,100318.69
2022-09-16T17:56:03.549Z,100325.34
2022-09-16T17:58:33.392Z,100332.97
2022-09-16T18:01:06.406Z,100309.97
2022-09-16T18:03:34.590Z,100322.81
2022-09-16T18:06:10.974Z,100317.28
2022-09-16T18:08:39.644Z,100321.44
2022-09-16T18:11:09.427Z,100324.28
2022-09-16T18:13:39.383Z,100322.59
2022-09-16T18:16:09.282Z,100315.09
2022-09-16T18:18:38.391Z,100319.28
2022-09-16T18:21:08.106Z,100316.78
2022-09-16T18:23:39.793Z,100322.94
2022-09-16T18:26:09.503Z,100315.59
2022-09-16T18:29:05.205Z,100321.78
2022-09-16T18:31:27.675Z,100300.13
2022-09-16T18:33:56.076Z,100321.56
2022-09-16T18:36:30.200Z,100309.56
2022-09-16T18:38:59.372Z,100328.69
2022-09-16T18:41:29.138Z,100329.19
2022-09-16T18:44:00.939Z,100324.72
2022-09-16T18:46:30.568Z,100335.13
2022-09-16T18:48:59.120Z,100343.41
2022-09-16T18:51:29.216Z,100340.41
2022-09-16T18:54:02.242Z,100325.47
2022-09-16T18:56:32.397Z,100328.44
2022-09-16T18:59:21.020Z,100338.75
2022-09-16T19:01:49.721Z,100340.09
2022-09-16T19:04:19.626Z,100328.31
2022-09-16T19:06:49.339Z,100305.53
2022-09-16T19:09:18.902Z,100319.81
2022-09-16T19:11:46.675Z,100333.09
2022-09-16T19:14:15.904Z,100340.75
2022-09-16T19:16:45.066Z,100340.59
2022-09-16T19:19:15.270Z,100337.78
2022-09-16T19:21:43.219Z,100354.34
2022-09-16T19:24:14.805Z,100348.72
2022-09-16T19:26:43.962Z,100336.22
2022-09-16T19:29:13.007Z,100355.69
2022-09-16T19:31:43.633Z,100353.88
2022-09-16T19:34:11.978Z,100340.84
2022-09-16T19:36:40.712Z,100347.00
2022-09-16T19:39:10.226Z,100355.78
2022-09-16T19:41:40.083Z,100342.25
2022-09-16T19:44:10.755Z,100349.63
2022-09-16T19:46:40.098Z,100346.47
2022-09-16T19:49:11.207Z,100343.91
2022-09-16T19:51:39.324Z,100345.47
2022-09-16T19:54:07.040Z,100346.16
2022-09-16T19:56:35.355Z,100349.47
2022-09-16T19:59:03.245Z,100355.09
2022-09-16T20:01:33.111Z,100363.25
2022-09-16T20:04:02.096Z,100333.31
2022-09-16T20:06:36.101Z,100361.09
2022-09-16T20:09:06.527Z,100361.19
2022-09-16T20:11:37.090Z,100363.81
2022-09-16T20:14:06.857Z,100362.75
2022-09-16T20:16:42.359Z,100356.16
2022-09-16T20:19:12.716Z,100352.09
2022-09-16T20:21:42.313Z,100365.09
2022-09-16T20:24:15.484Z,100366.91
2022-09-16T20:26:43.402Z,100369.31
2022-09-16T20:29:11.104Z,100379.56
2022-09-16T20:31:38.896Z,100392.13
2022-09-16T20:34:07.032Z,100366.22
2022-09-16T20:36:37.901Z,100387.19
2022-09-16T20:39:08.872Z,100391.47
2022-09-16T20:41:38.521Z,100396.91
2022-09-16T20:44:06.623Z,100392.44
2022-09-16T20:46:36.442Z,100389.78
2022-09-16T20:49:08.007Z,100393.19
2022-09-16T20:51:35.902Z,100390.94
2022-09-16T20:54:07.770Z,100380.28
2022-09-16T20:56:39.337Z,100401.69
2022-09-16T20:59:08.373Z,100393.28
2022-09-16T21:01:37.415Z,100399.13
2022-09-16T21:04:06.657Z,100394.47
2022-09-16T21:06:36.021Z,100405.91
2022-09-16T21:09:05.904Z,100407.56
2022-09-16T21:11:35.400Z,100407.06
2022-09-16T21:14:07.624Z,100413.38
2022-09-16T21:16:38.564Z,100404.56
2022-09-16T21:19:10.052Z,100380.72
2022-09-16T21:21:39.711Z,100399.03
2022-09-16T21:24:09.653Z,100408.81
2022-09-16T21:26:39.355Z,100407.47
2022-09-16T21:29:11.478Z,100400.47
2022-09-16T21:31:41.200Z,100407.69
2022-09-16T21:34:12.397Z,100402.06
2022-09-16T21:36:40.305Z,100399.66
2022-09-16T21:39:08.078Z,100390.66
2022-09-16T21:41:35.771Z,100396.09
2022-09-16T21:44:04.855Z,100400.56
2022-09-16T21:46:39.450Z,100389.38
2022-09-16T21:49:07.672Z,100408.09
2022-09-16T21:51:38.223Z,100409.66
2022-09-16T21:54:07.753Z,100400.56
2022-09-16T21:56:38.467Z,100410.75
2022-09-16T21:59:07.294Z,100405.88
2022-09-16T22:01:38.193Z,100408.22
2022-09-16T22:04:07.750Z,100408.16
2022-09-16T22:06:35.504Z,100403.81
2022-09-16T22:09:06.975Z,100413.53
2022-09-16T22:11:35.632Z,100392.03
2022-09-16T22:14:04.361Z,100417.03
2022-09-16T22:16:34.229Z,100416.50
2022-09-16T22:19:06.756Z,100414.13
2022-09-16T22:21:36.819Z,100410.44
2022-09-16T22:24:05.623Z,100417.72
2022-09-16T22:26:33.948Z,100417.78
2022-09-16T22:29:02.552Z,100399.91
2022-09-16T22:31:32.065Z,100432.50
2022-09-16T22:34:01.255Z,100419.69
2022-09-16T22:36:31.695Z,100420.13
2022-09-16T22:39:01.039Z,100432.78
2022-09-16T22:41:30.075Z,100429.38
2022-09-16T22:43:58.701Z,100427.69
2022-09-16T22:46:28.478Z,100419.28
2022-09-16T22:48:57.509Z,100426.72
2022-09-16T22:51:25.879Z,100416.50
2022-09-16T22:53:55.652Z,100417.03
2022-09-16T22:56:25.411Z,100416.78
2022-09-16T22:58:54.549Z,100417.63
2022-09-16T23:01:24.697Z,100423.56
2022-09-16T23:03:54.388Z,100417.94
2022-09-16T23:06:23.349Z,100416.09
2022-09-16T23:08:52.229Z,100415.13
2022-09-16T23:11:23.477Z,100419.38
2022-09-16T23:13:52.834Z,100406.50
2022-09-16T23:16:23.147Z,100401.56
2022-09-16T23:18:51.640Z,100418.59
2022-09-16T23:21:21.014Z,100420.38
2022-09-16T23:23:52.597Z,100409.38
2022-09-16T23:26:23.801Z,100419.38
2022-09-16T23:28:53.089Z,100420.53
2022-09-16T23:31:23.742Z,100414.09
2022-09-16T23:33:51.548Z,100414.38
2022-09-16T23:36:19.742Z,100412.31
2022-09-16T23:38:47.960Z,100422.63
2022-09-16T23:41:19.416Z,100426.25
2022-09-16T23:43:49.600Z,100430.69
2022-09-16T23:46:20.458Z,100424.16
2022-09-16T23:48:51.529Z,100435.75
2022-09-16T23:51:22.594Z,100435.34
2022-09-16T23:53:53.663Z,100429.53
2022-09-16T23:56:22.063Z,100435.50
2022-09-16T23:58:51.852Z,100430.19
